sensor_id;sensor_type;location;lat;lon;timestamp;pressure;altitude;pressure_sealevel;temperature;humidity
57847;BME280;43675;50.030;21.952;2023-02-11T00:00:43;100357.59;;;0.26;62.37
57847;BME280;43675;50.030;21.952;2023-02-11T00:03:23;100352.45;;;0.26;62.51
57847;BME280;43675;50.030;21.952;2023-02-11T00:06:00;100349.55;;;0.27;62.41
57847;BME280;43675;50.030;21.952;2023-02-11T00:08:27;100339.11;;;0.26;62.57
57847;BME280;43675;50.030;21.952;2023-02-11T00:10:56;100344.04;;;0.23;62.60
57847;BME280;43675;50.030;21.952;2023-02-11T00:13:24;100339.04;;;0.22;62.63
57847;BME280;43675;50.030;21.952;2023-02-11T00:15:51;100328.89;;;0.21;62.56
57847;BME280;43675;50.030;21.952;2023-02-11T00:18:18;100325.34;;;0.19;62.70
57847;BME280;43675;50.030;21.952;2023-02-11T00:20:45;100326.40;;;0.16;62.81
57847;BME280;43675;50.030;21.952;2023-02-11T00:23:12;100319.84;;;0.15;62.95
57847;BME280;43675;50.030;21.952;2023-02-11T00:25:43;100322.70;;;0.14;62.77
57847;BME280;43675;50.030;21.952;2023-02-11T00:28:11;100318.93;;;0.13;62.87
57847;BME280;43675;50.030;21.952;2023-02-11T00:30:38;100320.85;;;0.15;62.84
57847;BME280;43675;50.030;21.952;2023-02-11T00:33:04;100322.27;;;0.15;62.82
57847;BME280;43675;50.030;21.952;2023-02-11T00:35:31;100320.13;;;0.13;62.93
57847;BME280;43675;50.030;21.952;2023-02-11T00:37:58;100317.79;;;0.11;62.86
57847;BME280;43675;50.030;21.952;2023-02-11T00:40:24;100314.73;;;0.10;62.82
57847;BME280;43675;50.030;21.952;2023-02-11T00:42:51;100314.88;;;0.10;62.94
57847;BME280;43675;50.030;21.952;2023-02-11T00:45:17;100312.55;;;0.11;62.86
57847;BME280;43675;50.030;21.952;2023-02-11T00:47:44;100306.30;;;0.12;62.90
57847;BME280;43675;50.030;21.952;2023-02-11T00:50:10;100301.76;;;0.28;62.75
57847;BME280;43675;50.030;21.952;2023-02-11T00:52:37;100299.04;;;0.46;62.36
57847;BME280;43675;50.030;21.952;2023-02-11T00:55:04;100294.27;;;0.54;62.06
57847;BME280;43675;50.030;21.952;2023-02-11T00:57:30;100287.48;;;0.43;62.26
57847;BME280;43675;50.030;21.952;2023-02-11T00:59:57;100283.55;;;0.34;62.47
57847;BME280;43675;50.030;21.952;2023-02-11T01:02:23;100279.61;;;0.28;62.71
57847;BME280;43675;50.030;21.952;2023-02-11T01:04:50;100272.89;;;0.24;62.62
57847;BME280;43675;50.030;21.952;2023-02-11T01:07:17;100264.88;;;0.20;62.69
57847;BME280;43675;50.030;21.952;2023-02-11T01:09:43;100260.73;;;0.17;62.84
57847;BME280;43675;50.030;21.952;2023-02-11T01:12:10;100257.52;;;0.12;62.88
57847;BME280;43675;50.030;21.952;2023-02-11T01:14:38;100252.33;;;0.09;62.90
57847;BME280;43675;50.030;21.952;2023-02-11T01:17:05;100250.04;;;0.06;62.74
57847;BME280;43675;50.030;21.952;2023-02-11T01:19:32;100251.09;;;0.04;62.92
57847;BME280;43675;50.030;21.952;2023-02-11T01:21:58;100248.52;;;0.03;62.85
57847;BME280;43675;50.030;21.952;2023-02-11T01:24:25;100244.16;;;-0.00;63.08
57847;BME280;43675;50.030;21.952;2023-02-11T01:26:52;100243.19;;;-0.01;63.02
57847;BME280;43675;50.030;21.952;2023-02-11T01:29:18;100249.61;;;-0.03;62.96
57847;BME280;43675;50.030;21.952;2023-02-11T01:31:45;100243.89;;;-0.04;63.15
57847;BME280;43675;50.030;21.952;2023-02-11T01:34:12;100237.74;;;-0.04;63.14
57847;BME280;43675;50.030;21.952;2023-02-11T01:36:40;100230.91;;;-0.04;63.09
57847;BME280;43675;50.030;21.952;2023-02-11T01:39:07;100230.82;;;-0.03;63.05
57847;BME280;43675;50.030;21.952;2023-02-11T01:41:34;100225.15;;;-0.03;63.05
57847;BME280;43675;50.030;21.952;2023-02-11T01:44:24;100227.83;;;-0.03;63.06
57847;BME280;43675;50.030;21.952;2023-02-11T01:46:52;100225.67;;;-0.05;63.02
57847;BME280;43675;50.030;21.952;2023-02-11T01:49:50;100222.61;;;-0.07;62.93
57847;BME280;43675;50.030;21.952;2023-02-11T01:54:55;100224.58;;;-0.04;63.01
57847;BME280;43675;50.030;21.952;2023-02-11T01:57:26;100220.41;;;-0.05;62.75
57847;BME280;43675;50.030;21.952;2023-02-11T02:03:01;100207.64;;;-0.06;62.91
57847;BME280;43675;50.030;21.952;2023-02-11T02:05:50;100200.55;;;-0.08;62.92
57847;BME280;43675;50.030;21.952;2023-02-11T02:08:30;100193.45;;;-0.12;62.83
57847;BME280;43675;50.030;21.952;2023-02-11T02:11:00;100191.28;;;-0.13;62.75
57847;BME280;43675;50.030;21.952;2023-02-11T02:13:31;100188.65;;;-0.16;62.96
57847;BME280;43675;50.030;21.952;2023-02-11T02:16:00;100192.26;;;-0.19;62.68
57847;BME280;43675;50.030;21.952;2023-02-11T02:18:31;100187.98;;;-0.21;62.84
57847;BME280;43675;50.030;21.952;2023-02-11T02:24:09;100189.62;;;-0.22;62.66
57847;BME280;43675;50.030;21.952;2023-02-11T02:37:55;100180.02;;;-0.37;62.89
57847;BME280;43675;50.030;21.952;2023-02-11T02:40:28;100177.20;;;-0.37;62.77
57847;BME280;43675;50.030;21.952;2023-02-11T02:42:57;100178.98;;;-0.38;62.68
57847;BME280;43675;50.030;21.952;2023-02-11T02:45:26;100171.59;;;-0.38;62.62
57847;BME280;43675;50.030;21.952;2023-02-11T02:47:53;100171.73;;;-0.40;62.68
57847;BME280;43675;50.030;21.952;2023-02-11T02:50:25;100170.73;;;-0.43;62.58
57847;BME280;43675;50.030;21.952;2023-02-11T02:56:20;100165.14;;;-0.51;62.61
57847;BME280;43675;50.030;21.952;2023-02-11T03:01:42;100167.44;;;-0.61;62.56
57847;BME280;43675;50.030;21.952;2023-02-11T03:04:26;100178.94;;;-0.67;62.65
57847;BME280;43675;50.030;21.952;2023-02-11T03:09:55;100181.30;;;-0.73;62.44
57847;BME280;43675;50.030;21.952;2023-02-11T03:12:26;100182.29;;;-0.77;62.33
57847;BME280;43675;50.030;21.952;2023-02-11T03:14:54;100180.96;;;-0.85;62.48
57847;BME280;43675;50.030;21.952;2023-02-11T03:17:23;100176.59;;;-0.99;62.48
57847;BME280;43675;50.030;21.952;2023-02-11T03:19:50;100177.59;;;-1.13;62.56
57847;BME280;43675;50.030;21.952;2023-02-11T03:22:34;100176.16;;;-1.28;62.77
57847;BME280;43675;50.030;21.952;2023-02-11T03:25:04;100175.17;;;-1.42;62.82
57847;BME280;43675;50.030;21.952;2023-02-11T03:27:47;100172.39;;;-1.51;62.78
57847;BME280;43675;50.030;21.952;2023-02-11T03:30:29;100162.47;;;-1.62;63.04
57847;BME280;43675;50.030;21.952;2023-02-11T03:33:07;100155.79;;;-1.70;63.08
57847;BME280;43675;50.030;21.952;2023-02-11T03:35:52;100148.39;;;-1.74;63.02
57847;BME280;43675;50.030;21.952;2023-02-11T03:38:23;100136.08;;;-1.82;63.26
57847;BME280;43675;50.030;21.952;2023-02-11T03:40:53;100128.08;;;-1.88;63.14
57847;BME280;43675;50.030;21.952;2023-02-11T03:43:26;100119.59;;;-1.95;63.72
57847;BME280;43675;50.030;21.952;2023-02-11T03:45:55;100113.34;;;-1.99;63.74
57847;BME280;43675;50.030;21.952;2023-02-11T03:48:44;100111.02;;;-2.04;63.66
57847;BME280;43675;50.030;21.952;2023-02-11T03:51:15;100109.05;;;-2.06;63.89
57847;BME280;43675;50.030;21.952;2023-02-11T03:53:44;100110.42;;;-2.08;63.92
57847;BME280;43675;50.030;21.952;2023-02-11T03:56:17;100113.88;;;-2.12;64.00
57847;BME280;43675;50.030;21.952;2023-02-11T03:58:47;100107.37;;;-2.17;63.99
57847;BME280;43675;50.030;21.952;2023-02-11T04:01:14;100097.86;;;-2.22;63.98
57847;BME280;43675;50.030;21.952;2023-02-11T04:03:41;100087.45;;;-2.26;64.08
57847;BME280;43675;50.030;21.952;2023-02-11T04:06:08;100076.44;;;-2.30;64.08
57847;BME280;43675;50.030;21.952;2023-02-11T04:08:34;100071.84;;;-2.32;64.26
57847;BME280;43675;50.030;21.952;2023-02-11T04:11:01;100065.91;;;-2.32;64.42
57847;BME280;43675;50.030;21.952;2023-02-11T04:13:28;100058.52;;;-2.31;64.32
57847;BME280;43675;50.030;21.952;2023-02-11T04:15:54;100043.02;;;-2.31;64.66
57847;BME280;43675;50.030;21.952;2023-02-11T04:18:21;100044.52;;;-2.29;64.33
57847;BME280;43675;50.030;21.952;2023-02-11T04:20:48;100047.73;;;-2.28;64.43
57847;BME280;43675;50.030;21.952;2023-02-11T04:23:15;100044.61;;;-2.25;64.31
57847;BME280;43675;50.030;21.952;2023-02-11T04:25:42;100044.77;;;-2.23;64.49
57847;BME280;43675;50.030;21.952;2023-02-11T04:28:08;100050.86;;;-2.22;64.45
57847;BME280;43675;50.030;21.952;2023-02-11T04:30:35;100036.10;;;-2.21;64.27
57847;BME280;43675;50.030;21.952;2023-02-11T04:33:02;100030.73;;;-2.20;64.40
57847;BME280;43675;50.030;21.952;2023-02-11T04:35:28;100027.38;;;-2.19;64.14
57847;BME280;43675;50.030;21.952;2023-02-11T04:37:55;100033.33;;;-2.19;64.55
57847;BME280;43675;50.030;21.952;2023-02-11T04:40:21;100020.83;;;-2.18;64.35
57847;BME280;43675;50.030;21.952;2023-02-11T04:42:48;100014.99;;;-2.18;64.47
57847;BME280;43675;50.030;21.952;2023-02-11T04:45:15;100006.89;;;-2.17;64.35
57847;BME280;43675;50.030;21.952;2023-02-11T04:47:41;100002.00;;;-2.17;64.23
57847;BME280;43675;50.030;21.952;2023-02-11T04:50:08;99996.77;;;-2.18;64.40
57847;BME280;43675;50.030;21.952;2023-02-11T04:52:34;99995.20;;;-2.18;64.16
57847;BME280;43675;50.030;21.952;2023-02-11T04:55:01;99985.36;;;-2.18;64.20
57847;BME280;43675;50.030;21.952;2023-02-11T04:57:28;99980.06;;;-2.17;64.44
57847;BME280;43675;50.030;21.952;2023-02-11T04:59:54;99975.50;;;-2.17;64.10
57847;BME280;43675;50.030;21.952;2023-02-11T05:02:21;99970.42;;;-2.17;64.37
57847;BME280;43675;50.030;21.952;2023-02-11T05:04:47;99971.23;;;-2.18;64.17
57847;BME280;43675;50.030;21.952;2023-02-11T05:07:14;99986.39;;;-2.20;64.31
57847;BME280;43675;50.030;21.952;2023-02-11T05:09:40;99996.25;;;-2.21;64.13
57847;BME280;43675;50.030;21.952;2023-02-11T05:12:07;99998.91;;;-2.24;64.15
57847;BME280;43675;50.030;21.952;2023-02-11T05:14:34;100001.98;;;-2.27;63.96
57847;BME280;43675;50.030;21.952;2023-02-11T05:17:00;100016.42;;;-2.31;63.96
57847;BME280;43675;50.030;21.952;2023-02-11T05:19:27;100014.03;;;-2.35;64.05
57847;BME280;43675;50.030;21.952;2023-02-11T05:21:53;100007.87;;;-2.37;64.09
57847;BME280;43675;50.030;21.952;2023-02-11T05:24:20;100004.49;;;-2.39;64.09
57847;BME280;43675;50.030;21.952;2023-02-11T05:26:46;100008.07;;;-2.40;64.25
57847;BME280;43675;50.030;21.952;2023-02-11T05:29:13;100008.61;;;-2.40;64.24
57847;BME280;43675;50.030;21.952;2023-02-11T05:31:39;100015.48;;;-2.41;64.30
57847;BME280;43675;50.030;21.952;2023-02-11T05:34:06;100020.33;;;-2.40;64.33
57847;BME280;43675;50.030;21.952;2023-02-11T05:36:33;100027.45;;;-2.39;64.12
57847;BME280;43675;50.030;21.952;2023-02-11T05:38:59;100029.98;;;-2.37;64.06
57847;BME280;43675;50.030;21.952;2023-02-11T05:41:26;100037.88;;;-2.35;64.09
57847;BME280;43675;50.030;21.952;2023-02-11T05:43:52;100042.16;;;-2.33;64.07
57847;BME280;43675;50.030;21.952;2023-02-11T05:46:19;100052.94;;;-2.32;64.28
57847;BME280;43675;50.030;21.952;2023-02-11T05:48:45;100051.70;;;-2.32;64.27
57847;BME280;43675;50.030;21.952;2023-02-11T05:51:12;100054.29;;;-2.31;64.03
57847;BME280;43675;50.030;21.952;2023-02-11T05:53:38;100046.80;;;-2.32;64.02
57847;BME280;43675;50.030;21.952;2023-02-11T05:56:05;100034.66;;;-2.34;64.11
57847;BME280;43675;50.030;21.952;2023-02-11T05:58:32;100021.32;;;-2.36;64.12
57847;BME280;43675;50.030;21.952;2023-02-11T06:00:59;100008.01;;;-2.39;64.07
57847;BME280;43675;50.030;21.952;2023-02-11T06:03:25;100002.17;;;-2.41;63.97
57847;BME280;43675;50.030;21.952;2023-02-11T06:05:52;99975.66;;;-2.43;64.30
57847;BME280;43675;50.030;21.952;2023-02-11T06:08:18;99955.38;;;-2.44;64.22
57847;BME280;43675;50.030;21.952;2023-02-11T06:10:45;99939.79;;;-2.44;64.12
57847;BME280;43675;50.030;21.952;2023-02-11T06:13:11;99914.98;;;-2.42;64.13
57847;BME280;43675;50.030;21.952;2023-02-11T06:15:38;99907.28;;;-2.40;64.31
57847;BME280;43675;50.030;21.952;2023-02-11T06:18:06;99919.14;;;-2.39;64.38
57847;BME280;43675;50.030;21.952;2023-02-11T06:20:32;99916.23;;;-2.37;64.48
57847;BME280;43675;50.030;21.952;2023-02-11T06:22:59;99901.44;;;-2.36;64.20
57847;BME280;43675;50.030;21.952;2023-02-11T06:25:25;99902.98;;;-2.36;64.11
57847;BME280;43675;50.030;21.952;2023-02-11T06:27:52;99902.77;;;-2.35;64.29
57847;BME280;43675;50.030;21.952;2023-02-11T06:30:19;99919.04;;;-2.38;64.25
57847;BME280;43675;50.030;21.952;2023-02-11T06:32:45;99926.81;;;-2.39;64.41
57847;BME280;43675;50.030;21.952;2023-02-11T06:35:12;99922.71;;;-2.40;64.11
57847;BME280;43675;50.030;21.952;2023-02-11T06:37:40;99919.66;;;-2.42;64.15
57847;BME280;43675;50.030;21.952;2023-02-11T06:40:07;99915.81;;;-2.42;64.13
57847;BME280;43675;50.030;21.952;2023-02-11T06:42:34;99911.54;;;-2.41;64.37
57847;BME280;43675;50.030;21.952;2023-02-11T06:45:00;99915.46;;;-2.39;64.11
57847;BME280;43675;50.030;21.952;2023-02-11T06:47:27;99910.64;;;-2.38;64.17
57847;BME280;43675;50.030;21.952;2023-02-11T06:49:53;99902.08;;;-2.35;64.15
57847;BME280;43675;50.030;21.952;2023-02-11T06:52:20;99906.41;;;-2.32;64.23
57847;BME280;43675;50.030;21.952;2023-02-11T06:54:47;99905.15;;;-2.29;64.29
57847;BME280;43675;50.030;21.952;2023-02-11T06:57:13;99907.05;;;-2.26;63.95
57847;BME280;43675;50.030;21.952;2023-02-11T06:59:40;99910.19;;;-2.21;64.14
57847;BME280;43675;50.030;21.952;2023-02-11T07:02:09;99915.00;;;-2.15;64.06
57847;BME280;43675;50.030;21.952;2023-02-11T07:04:35;99916.32;;;-2.08;64.02
57847;BME280;43675;50.030;21.952;2023-02-11T07:07:02;99916.53;;;-2.01;63.58
57847;BME280;43675;50.030;21.952;2023-02-11T07:09:29;99914.80;;;-1.96;63.50
57847;BME280;43675;50.030;21.952;2023-02-11T07:11:55;99908.56;;;-1.90;63.48
57847;BME280;43675;50.030;21.952;2023-02-11T07:14:22;99909.39;;;-1.84;63.46
57847;BME280;43675;50.030;21.952;2023-02-11T07:16:48;99909.20;;;-1.79;63.24
57847;BME280;43675;50.030;21.952;2023-02-11T07:19:15;99909.20;;;-1.74;63.12
57847;BME280;43675;50.030;21.952;2023-02-11T07:21:41;99905.85;;;-1.69;63.05
57847;BME280;43675;50.030;21.952;2023-02-11T07:24:09;99902.26;;;-1.63;62.81
57847;BME280;43675;50.030;21.952;2023-02-11T07:26:36;99904.07;;;-1.56;62.81
57847;BME280;43675;50.030;21.952;2023-02-11T07:29:02;99898.83;;;-1.49;62.56
57847;BME280;43675;50.030;21.952;2023-02-11T07:31:29;99893.71;;;-1.44;62.63
57847;BME280;43675;50.030;21.952;2023-02-11T07:34:01;99892.91;;;-1.40;62.24
57847;BME280;43675;50.030;21.952;2023-02-11T07:36:29;99894.05;;;-1.34;62.37
57847;BME280;43675;50.030;21.952;2023-02-11T07:38:57;99878.02;;;-1.28;62.12
57847;BME280;43675;50.030;21.952;2023-02-11T07:41:24;99870.46;;;-1.23;62.08
57847;BME280;43675;50.030;21.952;2023-02-11T07:43:51;99860.12;;;-1.19;61.94
57847;BME280;43675;50.030;21.952;2023-02-11T07:46:21;99857.80;;;-1.09;61.99
57847;BME280;43675;50.030;21.952;2023-02-11T07:48:48;99861.83;;;-1.06;61.83
57847;BME280;43675;50.030;21.952;2023-02-11T07:51:17;99863.27;;;-0.97;61.69
57847;BME280;43675;50.030;21.952;2023-02-11T07:53:45;99855.41;;;-0.86;61.35
57847;BME280;43675;50.030;21.952;2023-02-11T07:56:13;99851.68;;;-0.74;61.06
57847;BME280;43675;50.030;21.952;2023-02-11T07:58:41;99844.30;;;-0.76;61.07
57847;BME280;43675;50.030;21.952;2023-02-11T08:01:11;99844.74;;;-0.78;61.13
57847;BME280;43675;50.030;21.952;2023-02-11T08:03:38;99847.34;;;-0.75;61.34
57847;BME280;43675;50.030;21.952;2023-02-11T08:06:10;99841.73;;;-0.70;61.23
57847;BME280;43675;50.030;21.952;2023-02-11T08:08:37;99843.08;;;-0.62;61.01
57847;BME280;43675;50.030;21.952;2023-02-11T08:11:13;99842.69;;;-0.55;60.60
57847;BME280;43675;50.030;21.952;2023-02-11T08:13:40;99844.27;;;-0.51;60.84
57847;BME280;43675;50.030;21.952;2023-02-11T08:16:08;99851.00;;;-0.47;60.27
57847;BME280;43675;50.030;21.952;2023-02-11T08:18:35;99856.11;;;-0.42;60.40
57847;BME280;43675;50.030;21.952;2023-02-11T08:21:06;99856.47;;;-0.38;60.22
57847;BME280;43675;50.030;21.952;2023-02-11T08:23:38;99851.52;;;-0.33;60.16
57847;BME280;43675;50.030;21.952;2023-02-11T08:26:08;99850.56;;;-0.27;60.33
57847;BME280;43675;50.030;21.952;2023-02-11T08:28:37;99850.80;;;-0.21;60.01
57847;BME280;43675;50.030;21.952;2023-02-11T08:31:10;99844.39;;;-0.14;59.89
57847;BME280;43675;50.030;21.952;2023-02-11T08:33:37;99838.81;;;-0.05;59.68
57847;BME280;43675;50.030;21.952;2023-02-11T08:36:12;99839.37;;;0.01;59.59
57847;BME280;43675;50.030;21.952;2023-02-11T08:38:39;99849.14;;;0.07;59.64
57847;BME280;43675;50.030;21.952;2023-02-11T08:41:06;99847.66;;;0.12;59.48
57847;BME280;43675;50.030;21.952;2023-02-11T08:43:34;99841.45;;;0.13;59.45
57847;BME280;43675;50.030;21.952;2023-02-11T08:46:02;99840.31;;;0.12;59.30
57847;BME280;43675;50.030;21.952;2023-02-11T08:48:28;99839.76;;;0.08;59.02
57847;BME280;43675;50.030;21.952;2023-02-11T08:50:55;99833.30;;;0.03;59.14
57847;BME280;43675;50.030;21.952;2023-02-11T08:53:23;99828.92;;;-0.03;59.25
57847;BME280;43675;50.030;21.952;2023-02-11T08:55:51;99823.23;;;-0.06;59.21
57847;BME280;43675;50.030;21.952;2023-02-11T08:58:20;99815.09;;;-0.08;59.18
57847;BME280;43675;50.030;21.952;2023-02-11T09:00:48;99813.43;;;-0.09;58.94
57847;BME280;43675;50.030;21.952;2023-02-11T09:03:15;99820.48;;;-0.14;59.00
57847;BME280;43675;50.030;21.952;2023-02-11T09:05:43;99824.30;;;-0.19;59.16
57847;BME280;43675;50.030;21.952;2023-02-11T09:08:11;99817.30;;;-0.22;59.18
57847;BME280;43675;50.030;21.952;2023-02-11T09:10:38;99824.38;;;-0.23;59.06
57847;BME280;43675;50.030;21.952;2023-02-11T09:13:05;99828.27;;;-0.23;59.13
57847;BME280;43675;50.030;21.952;2023-02-11T09:15:32;99832.22;;;-0.22;59.06
57847;BME280;43675;50.030;21.952;2023-02-11T09:18:00;99824.61;;;-0.17;59.06
57847;BME280;43675;50.030;21.952;2023-02-11T09:20:27;99816.41;;;-0.11;59.14
57847;BME280;43675;50.030;21.952;2023-02-11T09:22:55;99803.62;;;-0.01;59.13
57847;BME280;43675;50.030;21.952;2023-02-11T09:25:22;99792.98;;;0.12;59.10
57847;BME280;43675;50.030;21.952;2023-02-11T09:27:49;99790.77;;;0.24;58.83
57847;BME280;43675;50.030;21.952;2023-02-11T09:30:16;99787.77;;;0.32;58.58
57847;BME280;43675;50.030;21.952;2023-02-11T09:32:42;99798.14;;;0.37;58.48
57847;BME280;43675;50.030;21.952;2023-02-11T09:35:09;99802.80;;;0.42;58.33
57847;BME280;43675;50.030;21.952;2023-02-11T09:37:35;99800.66;;;0.49;58.37
57847;BME280;43675;50.030;21.952;2023-02-11T09:40:02;99790.79;;;0.58;58.28
57847;BME280;43675;50.030;21.952;2023-02-11T09:45:21;99781.05;;;0.95;58.15
57847;BME280;43675;50.030;21.952;2023-02-11T09:47:53;99772.07;;;1.22;57.95
57847;BME280;43675;50.030;21.952;2023-02-11T09:50:37;99772.69;;;1.50;57.91
57847;BME280;43675;50.030;21.952;2023-02-11T09:53:13;99772.84;;;1.71;57.44
57847;BME280;43675;50.030;21.952;2023-02-11T09:55:45;99769.95;;;1.79;56.89
57847;BME280;43675;50.030;21.952;2023-02-11T09:58:24;99762.64;;;1.84;56.48
57847;BME280;43675;50.030;21.952;2023-02-11T10:03:48;99757.25;;;2.00;56.18
57847;BME280;43675;50.030;21.952;2023-02-11T10:06:35;99748.72;;;2.06;56.14
57847;BME280;43675;50.030;21.952;2023-02-11T10:12:27;99742.55;;;2.30;55.92
57847;BME280;43675;50.030;21.952;2023-02-11T10:22:46;99726.79;;;3.12;54.74
57847;BME280;43675;50.030;21.952;2023-02-11T10:25:38;99710.53;;;3.26;54.32
57847;BME280;43675;50.030;21.952;2023-02-11T10:28:15;99706.15;;;3.37;54.20
57847;BME280;43675;50.030;21.952;2023-02-11T10:31:00;99694.74;;;3.32;54.28
57847;BME280;43675;50.030;21.952;2023-02-11T10:36:10;99687.55;;;3.04;54.23
57847;BME280;43675;50.030;21.952;2023-02-11T10:38:37;99688.63;;;2.90;53.93
57847;BME280;43675;50.030;21.952;2023-02-11T10:41:04;99684.75;;;2.76;54.20
57847;BME280;43675;50.030;21.952;2023-02-11T10:43:32;99671.12;;;2.62;54.47
57847;BME280;43675;50.030;21.952;2023-02-11T10:46:01;99658.28;;;2.52;54.53
57847;BME280;43675;50.030;21.952;2023-02-11T10:48:47;99658.14;;;2.53;54.42
57847;BME280;43675;50.030;21.952;2023-02-11T10:51:40;99640.56;;;2.67;54.54
57847;BME280;43675;50.030;21.952;2023-02-11T10:56:36;99621.54;;;3.04;54.05
57847;BME280;43675;50.030;21.952;2023-02-11T11:01:55;99620.34;;;3.29;53.77
57847;BME280;43675;50.030;21.952;2023-02-11T11:07:20;99621.25;;;3.50;53.25
57847;BME280;43675;50.030;21.952;2023-02-11T11:09:59;99619.90;;;3.60;53.25
57847;BME280;43675;50.030;21.952;2023-02-11T11:14:59;99612.31;;;3.80;53.07
57847;BME280;43675;50.030;21.952;2023-02-11T11:17:26;99608.05;;;3.88;52.69
57847;BME280;43675;50.030;21.952;2023-02-11T11:22:39;99578.30;;;4.00;52.67
57847;BME280;43675;50.030;21.952;2023-02-11T11:25:26;99573.77;;;4.08;52.35
57847;BME280;43675;50.030;21.952;2023-02-11T11:27:55;99568.38;;;4.19;52.57
57847;BME280;43675;50.030;21.952;2023-02-11T11:30:46;99564.54;;;4.33;52.23
57847;BME280;43675;50.030;21.952;2023-02-11T11:33:25;99545.56;;;4.42;51.95
57847;BME280;43675;50.030;21.952;2023-02-11T11:36:06;99545.10;;;4.45;51.81
57847;BME280;43675;50.030;21.952;2023-02-11T11:38:36;99545.14;;;4.50;51.87
57847;BME280;43675;50.030;21.952;2023-02-11T11:41:48;99538.29;;;4.63;51.67
57847;BME280;43675;50.030;21.952;2023-02-11T11:44:23;99540.52;;;4.74;51.62
57847;BME280;43675;50.030;21.952;2023-02-11T11:52:58;99536.84;;;5.26;50.94
57847;BME280;43675;50.030;21.952;2023-02-11T11:55:27;99531.48;;;5.52;50.88
57847;BME280;43675;50.030;21.952;2023-02-11T11:57:57;99530.52;;;5.75;50.40
57847;BME280;43675;50.030;21.952;2023-02-11T12:01:02;99536.27;;;5.97;50.09
57847;BME280;43675;50.030;21.952;2023-02-11T12:09:26;99553.33;;;6.12;50.04
57847;BME280;43675;50.030;21.952;2023-02-11T12:25:54;99542.21;;;6.56;49.11
57847;BME280;43675;50.030;21.952;2023-02-11T12:28:28;99538.58;;;6.58;49.15
57847;BME280;43675;50.030;21.952;2023-02-11T12:47:37;99528.30;;;5.78;48.81
57847;BME280;43675;50.030;21.952;2023-02-11T12:50:23;99534.20;;;5.53;49.12
57847;BME280;43675;50.030;21.952;2023-02-11T12:55:39;99526.95;;;5.41;48.99
57847;BME280;43675;50.030;21.952;2023-02-11T12:58:15;99515.55;;;5.30;49.10
57847;BME280;43675;50.030;21.952;2023-02-11T13:00:57;99508.77;;;5.18;49.30
57847;BME280;43675;50.030;21.952;2023-02-11T13:03:50;99497.74;;;5.08;49.47
57847;BME280;43675;50.030;21.952;2023-02-11T13:06:26;99486.37;;;5.00;49.69
57847;BME280;43675;50.030;21.952;2023-02-11T13:09:02;99482.61;;;4.97;49.62
57847;BME280;43675;50.030;21.952;2023-02-11T13:11:39;99482.42;;;4.94;49.51
57847;BME280;43675;50.030;21.952;2023-02-11T13:16:52;99480.52;;;4.92;49.63
57847;BME280;43675;50.030;21.952;2023-02-11T13:19:33;99473.55;;;4.90;49.69
57847;BME280;43675;50.030;21.952;2023-02-11T13:22:37;99475.34;;;4.73;49.86
57847;BME280;43675;50.030;21.952;2023-02-11T13:30:59;99457.58;;;4.20;50.41
57847;BME280;43675;50.030;21.952;2023-02-11T13:33:35;99459.14;;;4.10;50.42
57847;BME280;43675;50.030;21.952;2023-02-11T13:38:29;99450.04;;;4.16;50.39
57847;BME280;43675;50.030;21.952;2023-02-11T13:41:09;99442.02;;;4.18;50.44
57847;BME280;43675;50.030;21.952;2023-02-11T13:43:40;99437.80;;;4.18;50.30
57847;BME280;43675;50.030;21.952;2023-02-11T13:46:10;99432.02;;;4.17;50.55
57847;BME280;43675;50.030;21.952;2023-02-11T13:48:40;99429.02;;;4.17;50.41
57847;BME280;43675;50.030;21.952;2023-02-11T13:51:13;99436.12;;;4.19;50.51
57847;BME280;43675;50.030;21.952;2023-02-11T13:53:53;99455.25;;;4.22;50.74
57847;BME280;43675;50.030;21.952;2023-02-11T13:56:37;99457.69;;;4.24;50.80
57847;BME280;43675;50.030;21.952;2023-02-11T13:59:42;99463.80;;;4.08;50.84
57847;BME280;43675;50.030;21.952;2023-02-11T14:04:22;99487.81;;;3.64;51.34
57847;BME280;43675;50.030;21.952;2023-02-11T14:07:30;99492.59;;;3.47;51.77
57847;BME280;43675;50.030;21.952;2023-02-11T14:09:57;99506.35;;;3.31;51.97
57847;BME280;43675;50.030;21.952;2023-02-11T14:12:31;99510.73;;;3.22;52.07
57847;BME280;43675;50.030;21.952;2023-02-11T14:17:33;99511.77;;;3.20;52.27
57847;BME280;43675;50.030;21.952;2023-02-11T14:20:02;99507.84;;;3.23;52.35
57847;BME280;43675;50.030;21.952;2023-02-11T14:22:39;99503.34;;;3.12;52.88
57847;BME280;43675;50.030;21.952;2023-02-11T14:25:21;99500.61;;;3.19;53.00
57847;BME280;43675;50.030;21.952;2023-02-11T14:27:54;99502.92;;;3.26;53.40
57847;BME280;43675;50.030;21.952;2023-02-11T14:30:25;99508.51;;;3.18;53.40
57847;BME280;43675;50.030;21.952;2023-02-11T14:36:16;99507.88;;;3.17;53.84
57847;BME280;43675;50.030;21.952;2023-02-11T14:41:29;99512.05;;;2.88;54.76
57847;BME280;43675;50.030;21.952;2023-02-11T14:44:00;99510.85;;;2.71;55.26
57847;BME280;43675;50.030;21.952;2023-02-11T14:46:30;99510.86;;;2.58;55.94
57847;BME280;43675;50.030;21.952;2023-02-11T14:48:59;99501.81;;;2.62;56.21
57847;BME280;43675;50.030;21.952;2023-02-11T14:51:30;99500.80;;;2.65;56.11
57847;BME280;43675;50.030;21.952;2023-02-11T14:54:08;99484.79;;;2.52;56.65
57847;BME280;43675;50.030;21.952;2023-02-11T14:56:36;99479.59;;;2.30;57.36
57847;BME280;43675;50.030;21.952;2023-02-11T14:59:02;99482.18;;;2.12;57.67
57847;BME280;43675;50.030;21.952;2023-02-11T15:01:31;99485.81;;;1.94;58.59
57847;BME280;43675;50.030;21.952;2023-02-11T15:03:59;99487.02;;;1.79;59.12
57847;BME280;43675;50.030;21.952;2023-02-11T15:06:35;99490.31;;;1.79;59.41
57847;BME280;43675;50.030;21.952;2023-02-11T15:09:25;99483.00;;;1.82;59.72
57847;BME280;43675;50.030;21.952;2023-02-11T15:11:56;99485.27;;;1.82;59.71
57847;BME280;43675;50.030;21.952;2023-02-11T15:14:26;99477.77;;;1.72;60.26
57847;BME280;43675;50.030;21.952;2023-02-11T15:16:56;99479.65;;;1.49;60.82